This is the latest recevied weather packets stored in our database for station/object IW2LSY-11. If no packets are shown the sender has not sent any weather packets the latest 10 day(s).
| Time | Temp. | Humidity | Pressure | Rain* | Wind** | Luminosity | Snow |
|---|---|---|---|---|---|---|---|
| 1777699804 | 15° C | 52% | 1027.5 hPa | - | - | 445 W/m² | - |
| 1777699205 | 13.89° C | 57% | 1027.6 hPa | - | - | 446 W/m² | - |
| 1777698605 | 13.33° C | 60% | 1027.6 hPa | - | - | 446 W/m² | - |
| 1777698005 | 11.11° C | 69% | 1027.5 hPa | - | - | 446 W/m² | - |
| 1777697405 | 9.44° C | 81% | 1027.5 hPa | - | - | 447 W/m² | - |
| 1777696806 | 8.33° C | 85% | 1027.6 hPa | - | - | 447 W/m² | - |
| 1777696206 | 8.33° C | 82% | 1027.5 hPa | - | - | 448 W/m² | - |
| 1777695607 | 8.89° C | 81% | 1027.5 hPa | - | - | 448 W/m² | - |
| 1777695007 | 8.33° C | 82% | 1027.4 hPa | - | - | 449 W/m² | - |
| 1777694407 | 8.89° C | 80% | 1027.3 hPa | - | - | 450 W/m² | - |
| 1777693807 | 8.89° C | 80% | 1027.2 hPa | - | - | 450 W/m² | - |
| 1777693207 | 8.89° C | 80% | 1027.1 hPa | - | - | 450 W/m² | - |
| 1777692607 | 8.33° C | 84% | 1027.2 hPa | - | - | 450 W/m² | - |
| 1777692008 | 9.44° C | 80% | 1027.2 hPa | - | - | 451 W/m² | - |
| 1777691408 | 8.89° C | 82% | 1027.1 hPa | - | - | 451 W/m² | - |
| 1777690808 | 8.33° C | 85% | 1027.2 hPa | - | - | 451 W/m² | - |
| 1777690209 | 8.33° C | 84% | 1027.2 hPa | - | - | 451 W/m² | - |
| 1777689609 | 8.89° C | 82% | 1027.2 hPa | - | - | 453 W/m² | - |
| 1777689010 | 9.44° C | 77% | 1027.1 hPa | - | - | 453 W/m² | - |
| 1777688410 | 9.44° C | 78% | 1027.1 hPa | - | - | 453 W/m² | - |
| 1777687811 | 9.44° C | 78% | 1027 hPa | - | - | 453 W/m² | - |
| 1777687211 | 9.44° C | 78% | 1027.1 hPa | - | - | 454 W/m² | - |
| 1777686611 | 10° C | 77% | 1027.2 hPa | - | - | 455 W/m² | - |
| 1777686011 | 10° C | 76% | 1027.1 hPa | - | - | 455 W/m² | - |
| 1777685412 | 9.44° C | 78% | 1027.1 hPa | - | - | 456 W/m² | - |
* Rain since midnight (hover to see other rain measurements)
** Current wind speed in m/s (hover to see current wind gust speed)